createdAt,value
2019-06-07T00:01:56.189Z,101638.11
2019-06-07T00:04:26.657Z,101636.34
2019-06-07T00:06:57.023Z,101641.59
2019-06-07T00:09:27.507Z,101636.30
2019-06-07T00:11:58.061Z,101635.48
2019-06-07T00:14:28.589Z,101634.11
2019-06-07T00:16:59.112Z,101633.19
2019-06-07T00:19:29.606Z,101630.98
2019-06-07T00:22:17.689Z,101627.45
2019-06-07T00:24:32.145Z,101626.52
2019-06-07T00:27:02.625Z,101629.16
2019-06-07T00:29:33.024Z,101627.80
2019-06-07T00:32:03.212Z,101622.09
2019-06-07T00:34:33.564Z,101617.70
2019-06-07T00:37:03.994Z,101622.92
2019-06-07T00:39:34.466Z,101625.97
2019-06-07T00:42:05.117Z,101626.39
2019-06-07T00:44:35.727Z,101626.80
2019-06-07T00:47:06.833Z,101625.06
2019-06-07T00:49:41.474Z,101626.36
2019-06-07T00:52:09.251Z,101632.04
2019-06-07T00:54:39.669Z,101634.18
2019-06-07T00:57:10.087Z,101626.75
2019-06-07T00:59:40.417Z,101623.63
2019-06-07T01:02:14.068Z,101628.45
2019-06-07T01:04:42.902Z,101622.28
2019-06-07T01:07:13.373Z,101628.39
2019-06-07T01:09:43.836Z,101626.19
2019-06-07T01:12:18.112Z,101634.95
2019-06-07T01:14:46.444Z,101630.14
2019-06-07T01:17:41.189Z,101624.44
2019-06-07T01:19:59.288Z,101623.98
2019-06-07T01:22:29.711Z,101624.88
2019-06-07T01:25:00.048Z,101627.48
2019-06-07T01:27:30.533Z,101631.41
2019-06-07T01:30:00.882Z,101629.22
2019-06-07T01:32:31.722Z,101623.48
2019-06-07T01:35:02.419Z,101611.23
2019-06-07T01:37:32.927Z,101601.57
2019-06-07T01:40:03.476Z,101605.09
2019-06-07T01:42:33.909Z,101605.56
2019-06-07T01:45:04.727Z,101605.99
2019-06-07T01:47:35.099Z,101607.78
2019-06-07T01:50:05.790Z,101602.13
2019-06-07T01:52:36.247Z,101602.58
2019-06-07T01:55:07.766Z,101600.39
2019-06-07T01:57:47.975Z,101598.23
2019-06-07T02:00:11.728Z,101589.46
2019-06-07T02:02:42.128Z,101584.67
2019-06-07T02:05:13.495Z,101585.09
2019-06-07T02:07:43.936Z,101578.11
2019-06-07T02:10:14.778Z,101575.02
2019-06-07T02:12:45.318Z,101576.34
2019-06-07T02:15:16.249Z,101569.73
2019-06-07T02:17:46.774Z,101568.41
2019-06-07T02:20:17.860Z,101567.08
2019-06-07T02:22:48.210Z,101560.05
2019-06-07T02:27:50.860Z,101566.63
2019-06-07T02:30:40.195Z,101564.83
2019-06-07T02:32:53.992Z,101560.48
2019-06-07T02:35:30.915Z,101562.22
2019-06-07T02:37:56.560Z,101553.88
2019-06-07T02:40:32.040Z,101545.09
2019-06-07T02:42:59.072Z,101547.72
2019-06-07T02:45:36.079Z,101547.73
2019-06-07T02:48:01.680Z,101543.77
2019-06-07T02:50:37.970Z,101536.73
2019-06-07T02:53:04.248Z,101531.02
2019-06-07T02:56:26.474Z,101524.87
2019-06-07T02:58:07.255Z,101521.41
2019-06-07T03:01:05.592Z,101519.18
2019-06-07T03:03:18.543Z,101521.97
2019-06-07T03:05:50.467Z,101516.66
2019-06-07T03:08:20.925Z,101512.68
2019-06-07T03:10:52.562Z,101518.83
2019-06-07T03:13:23.448Z,101521.87
2019-06-07T03:15:56.219Z,101524.07
2019-06-07T03:18:43.924Z,101517.08
2019-06-07T03:21:18.265Z,101519.27
2019-06-07T03:23:49.106Z,101518.37
2019-06-07T03:26:19.450Z,101521.44
2019-06-07T03:28:49.940Z,101529.74
2019-06-07T03:31:20.245Z,101531.08
2019-06-07T03:33:50.687Z,101531.97
2019-06-07T03:36:25.676Z,101534.59
2019-06-07T03:38:53.266Z,101529.34
2019-06-07T03:41:23.762Z,101525.42
2019-06-07T03:43:54.127Z,101526.73
2019-06-07T03:46:24.557Z,101529.85
2019-06-07T03:49:07.450Z,101530.72
2019-06-07T03:51:48.516Z,101525.48
2019-06-07T03:54:18.880Z,101535.59
2019-06-07T03:56:49.539Z,101539.54
2019-06-07T03:59:19.841Z,101537.38
2019-06-07T04:01:50.064Z,101529.97
2019-06-07T04:04:20.310Z,101533.48
2019-06-07T04:06:50.533Z,101529.16
2019-06-07T04:09:21.003Z,101529.63
2019-06-07T04:11:51.537Z,101527.02
2019-06-07T04:14:23.414Z,101528.81
2019-06-07T04:16:53.943Z,101531.91
2019-06-07T04:19:24.966Z,101538.96
2019-06-07T04:21:55.584Z,101538.98
2019-06-07T04:24:25.885Z,101531.56
2019-06-07T04:26:56.079Z,101538.59
2019-06-07T04:29:47.839Z,101537.77
2019-06-07T04:31:58.308Z,101535.62
2019-06-07T04:34:29.269Z,101534.36
2019-06-07T04:37:01.409Z,101537.88
2019-06-07T04:39:35.448Z,101537.03
2019-06-07T04:42:04.537Z,101536.16
2019-06-07T04:44:41.056Z,101535.73
2019-06-07T04:47:11.181Z,101535.74
2019-06-07T04:49:44.259Z,101537.06
2019-06-07T04:52:15.487Z,101541.90
2019-06-07T04:54:46.113Z,101540.14
2019-06-07T04:57:16.286Z,101542.32
2019-06-07T05:00:22.269Z,101544.95
2019-06-07T05:02:18.331Z,101547.56
2019-06-07T05:04:48.567Z,101540.55
2019-06-07T05:07:19.028Z,101551.06
2019-06-07T05:09:49.218Z,101561.19
2019-06-07T05:12:19.418Z,101559.83
2019-06-07T05:14:49.587Z,101560.28
2019-06-07T05:17:19.910Z,101562.87
2019-06-07T05:19:50.105Z,101567.22
2019-06-07T05:22:20.434Z,101555.73
2019-06-07T05:24:50.706Z,101556.11
2019-06-07T05:27:20.981Z,101547.69
2019-06-07T05:30:08.903Z,101543.22
2019-06-07T05:32:23.418Z,101542.29
2019-06-07T05:34:53.722Z,101545.31
2019-06-07T05:37:23.951Z,101542.64
2019-06-07T05:39:54.242Z,101534.64
2019-06-07T05:42:24.627Z,101535.88
2019-06-07T05:44:54.851Z,101530.52
2019-06-07T05:47:25.515Z,101530.88
2019-06-07T05:49:55.961Z,101522.50
2019-06-07T05:52:26.432Z,101522.77
2019-06-07T05:54:56.612Z,101524.86
2019-06-07T05:57:27.162Z,101523.84
2019-06-07T05:59:57.321Z,101516.47
2019-06-07T06:02:27.667Z,101517.27
2019-06-07T06:04:58.006Z,101513.62
2019-06-07T06:07:28.413Z,101512.63
2019-06-07T06:09:58.805Z,101512.04
2019-06-07T06:12:35.272Z,101508.33
2019-06-07T06:15:01.040Z,101501.48
2019-06-07T06:17:31.502Z,101500.83
2019-06-07T06:20:01.846Z,101497.55
2019-06-07T06:22:32.121Z,101484.15
2019-06-07T06:25:30.766Z,101478.61
2019-06-07T06:28:08.120Z,101471.83
2019-06-07T06:30:09.386Z,101473.27
2019-06-07T06:32:43.041Z,101469.45
2019-06-07T06:35:12.101Z,101466.98
2019-06-07T06:37:48.977Z,101462.76
2019-06-07T06:40:14.931Z,101455.00
2019-06-07T06:42:49.005Z,101451.66
2019-06-07T06:45:19.511Z,101448.70
2019-06-07T06:47:50.636Z,101447.42
2019-06-07T06:50:21.427Z,101449.25
2019-06-07T06:52:54.647Z,101450.31
2019-06-07T06:55:23.891Z,101457.59
2019-06-07T06:57:54.317Z,101455.62
2019-06-07T07:00:53.739Z,101460.64
2019-06-07T07:03:54.210Z,101458.91
2019-06-07T07:05:54.580Z,101446.86
2019-06-07T07:08:24.373Z,101452.62
2019-06-07T07:10:55.119Z,101448.16
2019-06-07T07:13:25.810Z,101445.56
2019-06-07T07:15:58.417Z,101449.23
2019-06-07T07:18:28.396Z,101451.32
2019-06-07T07:20:58.803Z,101447.67
2019-06-07T07:23:29.174Z,101447.90
2019-06-07T07:26:00.266Z,101451.20
2019-06-07T07:28:30.767Z,101447.00
2019-06-07T07:31:01.208Z,101451.70
2019-06-07T07:34:20.851Z,101455.72
2019-06-07T07:36:19.109Z,101447.52
2019-06-07T07:38:35.869Z,101436.61
2019-06-07T07:41:14.602Z,101428.19
2019-06-07T07:43:39.174Z,101440.49
2019-06-07T07:46:28.419Z,101434.67
2019-06-07T07:48:43.579Z,101428.02
2019-06-07T07:51:14.859Z,101426.73
2019-06-07T07:53:56.047Z,101422.19
2019-06-07T07:56:17.303Z,101423.64
2019-06-07T07:58:52.297Z,101413.95
2019-06-07T08:01:19.901Z,101407.89
2019-06-07T08:03:50.727Z,101401.73
2019-06-07T08:06:22.544Z,101398.69
2019-06-07T08:08:55.831Z,101394.67
2019-06-07T08:11:25.205Z,101395.34
2019-06-07T08:13:58.500Z,101395.97
2019-06-07T08:16:27.877Z,101389.98
2019-06-07T08:19:03.483Z,101384.84
2019-06-07T08:21:30.682Z,101384.87
2019-06-07T08:24:04.623Z,101377.31
2019-06-07T08:26:33.122Z,101372.30
2019-06-07T08:29:06.044Z,101371.89
2019-06-07T08:31:36.408Z,101366.64
2019-06-07T08:34:06.907Z,101357.70
2019-06-07T08:36:42.522Z,101359.88
2019-06-07T08:39:10.216Z,101361.36
2019-06-07T08:41:53.805Z,101362.04
2019-06-07T08:44:23.436Z,101358.69
2019-06-07T08:46:44.956Z,101356.34
2019-06-07T08:49:15.423Z,101349.82
2019-06-07T08:51:45.797Z,101336.59
2019-06-07T08:54:22.712Z,101341.81
2019-06-07T08:56:48.344Z,101334.27
2019-06-07T08:59:18.791Z,101332.56
2019-06-07T09:01:49.135Z,101332.51
2019-06-07T09:04:19.597Z,101325.75
2019-06-07T09:09:22.087Z,101317.17
2019-06-07T09:11:54.162Z,101323.44
2019-06-07T09:14:24.562Z,101329.42
2019-06-07T09:17:00.436Z,101321.42
2019-06-07T09:19:26.995Z,101322.43
2019-06-07T09:22:01.540Z,101319.97
2019-06-07T09:24:29.448Z,101323.25
2019-06-07T09:27:02.431Z,101318.38
2019-06-07T09:29:32.604Z,101318.69
2019-06-07T09:32:05.891Z,101312.73
2019-06-07T09:34:35.172Z,101305.09
2019-06-07T09:37:54.375Z,101300.63
2019-06-07T09:39:37.781Z,101288.53
2019-06-07T09:42:11.886Z,101263.97
2019-06-07T09:44:40.372Z,101264.45
2019-06-07T09:47:30.176Z,101266.21
2019-06-07T09:49:42.897Z,101258.19
2019-06-07T09:52:13.185Z,101254.44
2019-06-07T09:55:05.776Z,101255.33
2019-06-07T09:57:17.484Z,101253.04
2019-06-07T09:59:47.698Z,101252.95
2019-06-07T10:02:18.070Z,101250.25
2019-06-07T10:04:48.356Z,101265.44
2019-06-07T10:07:31.267Z,101253.56
2019-06-07T10:10:19.824Z,101245.58
2019-06-07T10:12:22.936Z,101246.27
2019-06-07T10:14:53.318Z,101231.58
2019-06-07T10:17:23.678Z,101234.16
2019-06-07T10:19:53.984Z,101224.17
2019-06-07T10:22:24.383Z,101214.58
2019-06-07T10:24:54.759Z,101212.16
2019-06-07T10:27:25.027Z,101201.28
2019-06-07T10:29:55.338Z,101199.08
2019-06-07T10:32:25.779Z,101202.27
2019-06-07T10:34:56.126Z,101185.91
2019-06-07T10:37:26.615Z,101189.20
2019-06-07T10:39:57.055Z,101202.07
2019-06-07T10:42:27.383Z,101182.64
2019-06-07T10:44:57.733Z,101176.69
2019-06-07T10:47:28.012Z,101161.11
2019-06-07T10:49:58.414Z,101176.13
2019-06-07T10:52:28.733Z,101155.95
2019-06-07T10:54:59.203Z,101156.98
2019-06-07T10:57:29.550Z,101154.58
2019-06-07T10:59:59.945Z,101147.58
2019-06-07T11:02:30.381Z,101144.48
2019-06-07T11:05:00.884Z,101150.52
2019-06-07T11:07:31.315Z,101145.86
2019-06-07T11:10:07.073Z,101152.68
2019-06-07T11:12:33.732Z,101137.77
2019-06-07T11:15:04.595Z,101133.81
2019-06-07T11:17:34.911Z,101138.29
2019-06-07T11:20:06.118Z,101118.35
2019-06-07T11:22:36.446Z,101100.47
2019-06-07T11:25:09.101Z,101118.12
2019-06-07T11:27:39.246Z,101108.31
2019-06-07T11:30:10.511Z,101105.75
2019-06-07T11:32:41.039Z,101102.94
2019-06-07T11:35:13.547Z,101098.89
2019-06-07T11:37:44.029Z,101093.88
2019-06-07T11:40:32.019Z,101084.87
2019-06-07T11:42:46.769Z,101073.31
2019-06-07T11:45:18.121Z,101082.86
2019-06-07T11:47:48.519Z,101100.39
2019-06-07T11:50:19.224Z,101089.05
2019-06-07T11:52:49.673Z,101084.98
2019-06-07T11:55:20.181Z,101075.28
2019-06-07T11:57:50.585Z,101074.24
2019-06-07T12:00:21.367Z,101076.92
2019-06-07T12:02:51.673Z,101067.68
2019-06-07T12:05:21.922Z,101064.85
2019-06-07T12:07:52.232Z,101049.84
2019-06-07T12:10:23.290Z,101049.30
2019-06-07T12:12:53.735Z,101043.58
2019-06-07T12:15:24.007Z,101034.25
2019-06-07T12:17:54.383Z,101039.27
2019-06-07T12:20:24.854Z,101029.17
2019-06-07T12:22:55.177Z,101019.32
2019-06-07T12:25:25.496Z,101009.66
2019-06-07T12:27:55.822Z,101015.92
2019-06-07T12:30:28.034Z,101014.92
2019-06-07T12:32:58.259Z,101009.39
2019-06-07T12:35:28.564Z,100984.78
2019-06-07T12:37:58.983Z,100983.13
2019-06-07T12:40:32.254Z,100979.03
2019-06-07T12:43:01.359Z,100982.44
2019-06-07T12:45:44.580Z,100967.19
2019-06-07T12:48:03.830Z,100961.44
2019-06-07T12:50:42.419Z,100953.69
2019-06-07T12:53:07.154Z,100939.64
2019-06-07T12:55:37.549Z,100937.89
2019-06-07T12:58:07.789Z,100930.29
2019-06-07T13:00:38.171Z,100926.66
2019-06-07T13:03:08.575Z,100926.27
2019-06-07T13:05:38.907Z,100921.00
2019-06-07T13:08:09.277Z,100924.05
2019-06-07T13:10:39.628Z,100916.23
2019-06-07T13:13:10.069Z,100916.62
2019-06-07T13:15:40.456Z,100917.89
2019-06-07T13:18:14.695Z,100906.11
2019-06-07T13:20:42.853Z,100914.47
2019-06-07T13:23:13.338Z,100910.33
2019-06-07T13:25:46.611Z,100911.06
2019-06-07T13:28:17.210Z,100905.65
2019-06-07T13:30:47.847Z,100898.27
2019-06-07T13:33:21.510Z,100906.83
2019-06-07T13:35:52.032Z,100910.24
2019-06-07T13:38:26.296Z,100906.49
2019-06-07T13:40:57.509Z,100876.38
2019-06-07T13:43:28.266Z,100909.86
2019-06-07T13:45:58.747Z,100896.94
2019-06-07T13:48:29.155Z,100881.63
2019-06-07T13:50:59.533Z,100888.16
2019-06-07T13:53:29.909Z,100890.92
2019-06-07T13:56:00.247Z,100884.67
2019-06-07T13:58:30.599Z,100871.91
2019-06-07T14:01:00.971Z,100875.41
2019-06-07T14:03:33.995Z,100875.50
2019-06-07T14:06:03.814Z,100866.95
2019-06-07T14:08:34.193Z,100863.87
2019-06-07T14:11:04.652Z,100857.64
2019-06-07T14:13:35.023Z,100858.72
2019-06-07T14:16:05.919Z,100851.22
2019-06-07T14:18:36.308Z,100847.66
2019-06-07T14:21:07.058Z,100841.77
2019-06-07T14:23:48.230Z,100830.73
2019-06-07T14:26:09.544Z,100830.09
2019-06-07T14:28:39.911Z,100831.67
2019-06-07T14:31:10.287Z,100819.39
2019-06-07T14:33:40.696Z,100803.08
2019-06-07T14:36:11.095Z,100808.14
2019-06-07T14:38:41.552Z,100800.25
2019-06-07T14:41:11.909Z,100801.25
2019-06-07T14:43:45.497Z,100790.64
2019-06-07T14:46:15.912Z,100785.89
2019-06-07T14:48:46.455Z,100782.03
2019-06-07T14:51:17.005Z,100777.25
2019-06-07T14:53:47.414Z,100776.23
2019-06-07T14:56:17.843Z,100778.41
2019-06-07T14:58:48.234Z,100766.79
2019-06-07T15:01:18.551Z,100782.64
2019-06-07T15:03:48.919Z,100769.14
2019-06-07T15:06:19.422Z,100767.78
2019-06-07T15:08:51.840Z,100770.62
2019-06-07T15:11:22.237Z,100772.40
2019-06-07T15:13:52.593Z,100770.62
2019-06-07T15:16:22.952Z,100764.03
2019-06-07T15:18:53.574Z,100764.00
2019-06-07T15:21:23.969Z,100763.56
2019-06-07T15:23:55.616Z,100757.44
2019-06-07T15:26:26.038Z,100755.83
2019-06-07T15:28:56.578Z,100747.38
2019-06-07T15:31:27.875Z,100740.54
2019-06-07T15:33:58.780Z,100736.84
2019-06-07T15:36:30.233Z,100735.43
2019-06-07T15:39:01.347Z,100734.92
2019-06-07T15:41:33.106Z,100721.49
2019-06-07T15:44:03.563Z,100726.23
2019-06-07T15:46:33.936Z,100716.33
2019-06-07T15:49:04.587Z,100720.62
2019-06-07T15:51:36.479Z,100714.34
2019-06-07T15:54:07.488Z,100711.70
2019-06-07T15:56:39.116Z,100704.95
2019-06-07T15:59:09.612Z,100701.48
2019-06-07T16:01:40.023Z,100693.61
2019-06-07T16:04:10.508Z,100688.80
2019-06-07T16:06:43.464Z,100689.59
2019-06-07T16:09:13.286Z,100685.13
2019-06-07T16:11:44.286Z,100685.38
2019-06-07T16:14:14.824Z,100667.41
2019-06-07T16:16:45.246Z,100664.77
2019-06-07T16:19:15.639Z,100673.98
2019-06-07T16:21:46.027Z,100659.98
2019-06-07T16:24:16.414Z,100671.00
2019-06-07T16:26:46.800Z,100666.98
2019-06-07T16:29:17.277Z,100665.17
2019-06-07T16:31:47.678Z,100661.14
2019-06-07T16:34:18.097Z,100657.34
2019-06-07T16:36:48.870Z,100650.91
2019-06-07T16:39:19.237Z,100644.67
2019-06-07T16:41:51.042Z,100646.61
2019-06-07T16:44:21.497Z,100646.52
2019-06-07T16:46:51.940Z,100648.72
2019-06-07T16:49:22.398Z,100637.59
2019-06-07T16:51:52.696Z,100635.20
2019-06-07T16:54:23.210Z,100628.73
2019-06-07T16:56:53.689Z,100622.86
2019-06-07T17:01:58.204Z,100612.91
2019-06-07T17:04:29.006Z,100623.51
2019-06-07T17:06:59.683Z,100618.71
2019-06-07T17:09:30.564Z,100616.86
2019-06-07T17:12:07.503Z,100614.27
2019-06-07T17:14:38.406Z,100622.78
2019-06-07T17:17:09.243Z,100612.23
2019-06-07T17:19:40.848Z,100602.22
2019-06-07T17:22:11.655Z,100601.70
2019-06-07T17:24:43.311Z,100600.63
2019-06-07T17:27:14.407Z,100595.76
2019-06-07T17:29:45.822Z,100591.59
2019-06-07T17:32:16.271Z,100589.34
2019-06-07T17:34:48.080Z,100589.25
2019-06-07T17:37:18.646Z,100589.47
2019-06-07T17:39:49.096Z,100595.91
2019-06-07T17:42:19.705Z,100619.43
2019-06-07T17:44:51.342Z,100626.91
2019-06-07T17:47:21.874Z,100626.20
2019-06-07T17:49:52.400Z,100634.73
2019-06-07T17:52:22.865Z,100621.45
2019-06-07T17:55:02.521Z,100641.20
2019-06-07T17:57:38.841Z,100688.67
2019-06-07T18:02:44.732Z,100844.20
2019-06-07T18:05:15.406Z,100795.14
2019-06-07T18:07:47.781Z,100769.86
2019-06-07T18:10:35.022Z,100754.98
2019-06-07T18:13:05.799Z,100743.71
2019-06-07T18:15:42.433Z,100736.80
2019-06-07T18:18:12.974Z,100738.80
2019-06-07T18:20:45.028Z,100732.70
2019-06-07T18:23:16.097Z,100726.81
2019-06-07T18:25:46.544Z,100724.44
2019-06-07T18:28:16.928Z,100733.44
2019-06-07T18:30:48.552Z,100733.13
2019-06-07T18:33:19.132Z,100721.62
2019-06-07T18:35:49.588Z,100724.22
2019-06-07T18:38:20.215Z,100707.66
2019-06-07T18:40:51.238Z,100728.29
2019-06-07T18:43:21.800Z,100728.16
2019-06-07T18:45:53.536Z,100747.79
2019-06-07T18:48:24.003Z,100754.95
2019-06-07T18:50:54.700Z,100759.44
2019-06-07T18:53:25.202Z,100766.17
2019-06-07T18:55:56.242Z,100770.69
2019-06-07T18:58:26.700Z,100782.75
2019-06-07T19:00:57.562Z,100789.13
2019-06-07T19:03:28.049Z,100797.24
2019-06-07T19:05:58.407Z,100807.48
2019-06-07T19:08:38.646Z,100818.58
2019-06-07T19:11:15.698Z,100812.02
2019-06-07T19:13:46.515Z,100809.56
2019-06-07T19:16:17.577Z,100805.72
2019-06-07T19:18:49.465Z,100819.00
2019-06-07T19:21:20.413Z,100821.83
2019-06-07T19:23:51.766Z,100827.06
2019-06-07T19:29:13.698Z,100836.02
2019-06-07T19:31:44.836Z,100829.16
2019-06-07T19:34:20.719Z,100819.08
2019-06-07T19:36:51.536Z,100807.12
2019-06-07T19:39:22.214Z,100798.77
2019-06-07T19:41:53.920Z,100807.68
2019-06-07T19:44:24.667Z,100821.98
2019-06-07T19:47:00.498Z,100835.36
2019-06-07T19:49:33.946Z,100861.03
2019-06-07T19:52:04.667Z,100870.28
2019-06-07T19:54:35.298Z,100881.25
2019-06-07T19:57:07.179Z,100886.45
2019-06-07T19:59:37.794Z,100880.66
2019-06-07T20:02:08.619Z,100869.20
2019-06-07T20:04:39.306Z,100878.02
2019-06-07T20:07:10.063Z,100881.06
2019-06-07T20:09:40.893Z,100881.06
2019-06-07T20:12:11.644Z,100883.31
2019-06-07T20:14:42.316Z,100882.08
2019-06-07T20:17:12.969Z,100864.61
2019-06-07T20:19:43.863Z,100851.63
2019-06-07T20:22:14.570Z,100823.59
2019-06-07T20:24:45.214Z,100825.59
2019-06-07T20:27:20.285Z,100807.70
2019-06-07T20:29:56.755Z,100802.61
2019-06-07T20:32:27.902Z,100804.55
2019-06-07T20:34:59.658Z,100817.50
2019-06-07T20:37:30.265Z,100826.05
2019-06-07T20:40:12.959Z,100823.13
2019-06-07T20:42:33.462Z,100855.01
2019-06-07T20:45:04.232Z,100879.39
2019-06-07T20:47:34.702Z,100898.05
2019-06-07T20:50:06.353Z,100890.19
2019-06-07T20:52:36.920Z,100885.50
2019-06-07T20:55:09.093Z,100888.77
2019-06-07T20:57:40.025Z,100898.21
2019-06-07T21:00:20.739Z,100897.82
2019-06-07T21:02:44.448Z,100888.13
2019-06-07T21:05:15.404Z,100905.32
2019-06-07T21:07:46.282Z,100879.34
2019-06-07T21:10:17.390Z,100894.33
2019-06-07T21:12:48.116Z,100897.46
2019-06-07T21:15:20.730Z,100896.62
2019-06-07T21:17:51.527Z,100886.52
2019-06-07T21:23:00.677Z,100887.17
2019-06-07T21:25:31.115Z,100901.45
2019-06-07T21:28:03.081Z,100913.89
2019-06-07T21:30:33.678Z,100926.28
2019-06-07T21:33:05.454Z,100916.20
2019-06-07T21:35:35.974Z,100899.95
2019-06-07T21:38:07.835Z,100900.89
2019-06-07T21:40:38.277Z,100908.44
2019-06-07T21:43:08.835Z,100907.16
2019-06-07T21:45:39.198Z,100909.86
2019-06-07T21:48:09.539Z,100905.91
2019-06-07T21:50:39.970Z,100905.91
2019-06-07T21:53:10.716Z,100898.94
2019-06-07T21:55:51.692Z,100912.23
2019-06-07T21:58:22.404Z,100906.17
2019-06-07T22:01:23.091Z,100896.12
2019-06-07T22:03:53.530Z,100892.70
2019-06-07T22:06:23.861Z,100884.87
2019-06-07T22:08:54.269Z,100884.95
2019-06-07T22:11:24.670Z,100892.13
2019-06-07T22:13:55.064Z,100883.84
2019-06-07T22:16:29.301Z,100887.48
2019-06-07T22:18:57.535Z,100884.03
2019-06-07T22:21:28.062Z,100900.43
2019-06-07T22:23:58.518Z,100892.05
2019-06-07T22:26:28.953Z,100892.48
2019-06-07T22:28:59.320Z,100899.08
2019-06-07T22:31:31.127Z,100897.78
2019-06-07T22:34:01.700Z,100885.53
2019-06-07T22:36:32.144Z,100882.17
2019-06-07T22:39:02.608Z,100877.02
2019-06-07T22:41:32.939Z,100883.31
2019-06-07T22:44:03.373Z,100876.83
2019-06-07T22:46:37.620Z,100876.97
2019-06-07T22:49:07.212Z,100878.78
2019-06-07T22:51:37.662Z,100880.63
2019-06-07T22:54:08.087Z,100872.48
2019-06-07T22:57:00.648Z,100879.48
2019-06-07T22:59:31.128Z,100863.27
2019-06-07T23:02:01.737Z,100869.08
2019-06-07T23:04:32.387Z,100867.82
2019-06-07T23:07:03.135Z,100871.38
2019-06-07T23:09:33.735Z,100874.08
2019-06-07T23:12:04.485Z,100860.45
2019-06-07T23:14:35.133Z,100867.10
2019-06-07T23:17:05.666Z,100868.45
2019-06-07T23:19:36.446Z,100876.01
2019-06-07T23:22:07.210Z,100869.44
2019-06-07T23:24:37.768Z,100861.99
2019-06-07T23:27:08.437Z,100865.55
2019-06-07T23:29:39.121Z,100858.55
2019-06-07T23:32:10.529Z,100854.66
2019-06-07T23:34:41.125Z,100850.27
2019-06-07T23:37:12.994Z,100853.22
2019-06-07T23:39:43.695Z,100846.67
2019-06-07T23:42:15.447Z,100841.02
2019-06-07T23:44:46.068Z,100845.04
2019-06-07T23:47:17.720Z,100849.52
2019-06-07T23:49:48.916Z,100849.08
2019-06-07T23:52:19.762Z,100842.07
2019-06-07T23:54:50.320Z,100838.58
2019-06-07T23:57:22.546Z,100846.95
2019-06-07T23:59:53.092Z,100840.37
